AFR11AM LFPG-EPWA
Flight info
| Callsign | AFR11AM |
|---|---|
| Flight time | 2h 7m |
| Altitude | 35000 |
| Route | RANUX DCT VALEK DCT LIPNI UN858 LIMGO DCT BITBU Z140 ODVUX DCT MASEK DCT POZUM DCT OBOKU DCT DOSIX DCT BIMPA |
| Aircraft | A320/M-SDE2E3FGIJ1RWY/HB1 |
Departure
| Time | 2026-05-01 08:24 |
|---|---|
| Airport | Charles de Gaulle International Airport (LFPG) |
Arrival
| Time | 2026-05-01 10:32 |
|---|---|
| Airport | Warsaw Chopin Airport (EPWA) |
| Time | Latitude | Longitude | Altitude | Speed | Heading |
|---|---|---|---|---|---|
| 2026-05-01 08:04 | 49.00583 | 2.58021 | 354 ft | 0 kts | 288° |
| 2026-05-01 08:10 | 49.00580 | 2.58035 | 363 ft | 3 kts | 289° |
| 2026-05-01 08:11 | 49.00571 | 2.58093 | 361 ft | 3 kts | 258° |
| 2026-05-01 08:11 | 49.00582 | 2.58147 | 362 ft | 3 kts | 252° |
| 2026-05-01 08:12 | 49.00595 | 2.58205 | 361 ft | 3 kts | 250° |
| 2026-05-01 08:12 | 49.00596 | 2.58210 | 358 ft | 0 kts | 250° |
| 2026-05-01 08:14 | 49.00595 | 2.58203 | 361 ft | 3 kts | 256° |
| 2026-05-01 08:14 | 49.00627 | 2.58147 | 358 ft | 12 kts | 345° |
| 2026-05-01 08:15 | 49.00738 | 2.58129 | 354 ft | 20 kts | 355° |
| 2026-05-01 08:15 | 49.01014 | 2.58226 | 360 ft | 26 kts | 354° |
| 2026-05-01 08:15 | 49.01205 | 2.58203 | 356 ft | 28 kts | 355° |
| 2026-05-01 08:16 | 49.01398 | 2.58176 | 356 ft | 28 kts | 354° |
| 2026-05-01 08:16 | 49.01589 | 2.58151 | 354 ft | 27 kts | 356° |
| 2026-05-01 08:16 | 49.01778 | 2.58129 | 358 ft | 27 kts | 354° |
| 2026-05-01 08:16 | 49.01957 | 2.58064 | 358 ft | 26 kts | 331° |
| 2026-05-01 08:17 | 49.02072 | 2.57856 | 356 ft | 26 kts | 291° |
| 2026-05-01 08:17 | 49.02084 | 2.57589 | 354 ft | 25 kts | 265° |
| 2026-05-01 08:17 | 49.02071 | 2.57324 | 356 ft | 25 kts | 264° |
| 2026-05-01 08:17 | 49.02056 | 2.57061 | 354 ft | 25 kts | 265° |
| 2026-05-01 08:18 | 49.02044 | 2.56801 | 360 ft | 24 kts | 265° |
| 2026-05-01 08:18 | 49.02062 | 2.56309 | 358 ft | 23 kts | 308° |
| 2026-05-01 08:19 | 49.02079 | 2.55827 | 360 ft | 26 kts | 265° |
| 2026-05-01 08:19 | 49.02065 | 2.55534 | 357 ft | 28 kts | 264° |
| 2026-05-01 08:19 | 49.02050 | 2.55242 | 354 ft | 27 kts | 266° |
| 2026-05-01 08:19 | 49.02034 | 2.54954 | 354 ft | 27 kts | 265° |
| 2026-05-01 08:20 | 49.02020 | 2.54672 | 354 ft | 26 kts | 265° |
| 2026-05-01 08:20 | 49.02005 | 2.54396 | 361 ft | 26 kts | 265° |
| 2026-05-01 08:20 | 49.01954 | 2.54154 | 356 ft | 24 kts | 218° |
| 2026-05-01 08:20 | 49.01898 | 2.54054 | 359 ft | 15 kts | 249° |
| 2026-05-01 08:21 | 49.01888 | 2.53905 | 363 ft | 13 kts | 264° |
| 2026-05-01 08:21 | 49.01880 | 2.53776 | 354 ft | 11 kts | 265° |
| 2026-05-01 08:21 | 49.01875 | 2.53665 | 361 ft | 10 kts | 267° |
| 2026-05-01 08:21 | 49.01869 | 2.53519 | 354 ft | 17 kts | 266° |
| 2026-05-01 08:22 | 49.01853 | 2.53313 | 355 ft | 23 kts | 266° |
| 2026-05-01 08:22 | 49.01842 | 2.53044 | 354 ft | 28 kts | 265° |
| 2026-05-01 08:22 | 49.01826 | 2.52748 | 358 ft | 28 kts | 265° |
| 2026-05-01 08:22 | 49.01808 | 2.52455 | 354 ft | 23 kts | 265° |
| 2026-05-01 08:23 | 49.01899 | 2.52353 | 354 ft | 17 kts | 354° |
| 2026-05-01 08:23 | 49.02012 | 2.52340 | 357 ft | 15 kts | 354° |
| 2026-05-01 08:23 | 49.02110 | 2.52338 | 354 ft | 13 kts | 33° |
| 2026-05-01 08:23 | 49.02126 | 2.52479 | 356 ft | 23 kts | 85° |
| 2026-05-01 08:24 | 49.02160 | 2.53100 | 355 ft | 92 kts | 85° |
| 2026-05-01 08:24 | 49.02228 | 2.54373 | 356 ft | 146 kts | 85° |
| 2026-05-01 08:24 | 49.02310 | 2.56086 | 644 ft | 165 kts | 88° |
| 2026-05-01 08:24 | 49.02400 | 2.57829 | 1325 ft | 167 kts | 87° |
| 2026-05-01 08:25 | 49.02447 | 2.59594 | 2001 ft | 168 kts | 98° |
| 2026-05-01 08:25 | 49.02301 | 2.61359 | 2671 ft | 167 kts | 102° |
| 2026-05-01 08:25 | 49.02120 | 2.63118 | 3297 ft | 169 kts | 102° |
| 2026-05-01 08:25 | 49.01925 | 2.64920 | 3752 ft | 182 kts | 103° |
| 2026-05-01 08:26 | 49.01533 | 2.66845 | 4092 ft | 198 kts | 111° |
| 2026-05-01 08:26 | 49.01114 | 2.68963 | 4372 ft | 222 kts | 105° |
| 2026-05-01 08:26 | 49.00893 | 2.71414 | 4733 ft | 247 kts | 93° |
| 2026-05-01 08:26 | 49.00953 | 2.74142 | 5206 ft | 267 kts | 90° |
| 2026-05-01 08:27 | 49.00937 | 2.76995 | 5992 ft | 271 kts | 94° |
| 2026-05-01 08:27 | 49.00988 | 2.79899 | 6801 ft | 277 kts | 89° |
| 2026-05-01 08:27 | 49.01079 | 2.82844 | 7643 ft | 279 kts | 89° |
| 2026-05-01 08:27 | 49.01188 | 2.85811 | 8441 ft | 282 kts | 88° |
| 2026-05-01 08:28 | 49.01322 | 2.88855 | 9287 ft | 286 kts | 88° |
| 2026-05-01 08:28 | 49.01472 | 2.91841 | 10104 ft | 289 kts | 87° |
| 2026-05-01 08:28 | 49.01692 | 2.94933 | 10661 ft | 302 kts | 84° |
| 2026-05-01 08:28 | 49.02036 | 2.98217 | 10893 ft | 325 kts | 82° |
| 2026-05-01 08:29 | 49.02462 | 3.01720 | 11403 ft | 336 kts | 81° |
| 2026-05-01 08:29 | 49.02901 | 3.05197 | 12085 ft | 340 kts | 81° |
| 2026-05-01 08:29 | 49.03352 | 3.08802 | 12816 ft | 343 kts | 81° |
| 2026-05-01 08:29 | 49.03780 | 3.12320 | 13549 ft | 346 kts | 82° |
| 2026-05-01 08:30 | 49.04216 | 3.16014 | 14245 ft | 349 kts | 82° |
| 2026-05-01 08:30 | 49.04637 | 3.19672 | 14862 ft | 352 kts | 82° |
| 2026-05-01 08:30 | 49.05055 | 3.23361 | 15475 ft | 355 kts | 83° |
| 2026-05-01 08:30 | 49.05475 | 3.27081 | 16084 ft | 358 kts | 83° |
| 2026-05-01 08:31 | 49.05899 | 3.30843 | 16688 ft | 362 kts | 83° |
| 2026-05-01 08:31 | 49.06320 | 3.34588 | 17269 ft | 365 kts | 83° |
| 2026-05-01 08:31 | 49.06760 | 3.38468 | 17876 ft | 368 kts | 83° |
| 2026-05-01 08:31 | 49.07197 | 3.42333 | 18467 ft | 372 kts | 83° |
| 2026-05-01 08:32 | 49.07626 | 3.46183 | 18976 ft | 375 kts | 83° |
| 2026-05-01 08:32 | 49.08064 | 3.50164 | 19510 ft | 377 kts | 83° |
| 2026-05-01 08:32 | 49.08492 | 3.54064 | 20016 ft | 379 kts | 83° |
| 2026-05-01 08:32 | 49.08884 | 3.58050 | 20528 ft | 381 kts | 85° |
| 2026-05-01 08:33 | 49.09195 | 3.62074 | 21047 ft | 383 kts | 86° |
| 2026-05-01 08:33 | 49.09456 | 3.66121 | 21565 ft | 384 kts | 87° |
| 2026-05-01 08:33 | 49.09698 | 3.70192 | 22074 ft | 386 kts | 88° |
| 2026-05-01 08:33 | 49.09940 | 3.74286 | 22577 ft | 388 kts | 88° |
| 2026-05-01 08:34 | 49.10190 | 3.78399 | 23070 ft | 391 kts | 87° |
| 2026-05-01 08:34 | 49.10451 | 3.82536 | 23553 ft | 393 kts | 87° |
| 2026-05-01 08:34 | 49.10721 | 3.86697 | 23986 ft | 395 kts | 87° |
| 2026-05-01 08:34 | 49.10997 | 3.90880 | 24379 ft | 397 kts | 87° |
| 2026-05-01 08:35 | 49.11274 | 3.95082 | 24768 ft | 399 kts | 87° |
| 2026-05-01 08:35 | 49.11552 | 3.99305 | 25140 ft | 401 kts | 87° |
| 2026-05-01 08:35 | 49.11830 | 4.03552 | 25504 ft | 403 kts | 87° |
| 2026-05-01 08:35 | 49.12106 | 4.07818 | 25871 ft | 405 kts | 87° |
| 2026-05-01 08:36 | 49.12381 | 4.12109 | 26234 ft | 407 kts | 87° |
| 2026-05-01 08:36 | 49.12653 | 4.16416 | 26591 ft | 409 kts | 87° |
| 2026-05-01 08:36 | 49.12923 | 4.20748 | 26947 ft | 411 kts | 87° |
| 2026-05-01 08:36 | 49.13193 | 4.25101 | 27295 ft | 413 kts | 87° |
| 2026-05-01 08:37 | 49.13464 | 4.29474 | 27635 ft | 415 kts | 87° |
| 2026-05-01 08:37 | 49.13773 | 4.33863 | 27977 ft | 418 kts | 83° |
| 2026-05-01 08:37 | 49.14461 | 4.38134 | 28323 ft | 423 kts | 73° |
| 2026-05-01 08:37 | 49.15557 | 4.42320 | 28645 ft | 426 kts | 70° |
| 2026-05-01 08:38 | 49.16703 | 4.46506 | 28971 ft | 428 kts | 70° |
| 2026-05-01 08:38 | 49.17848 | 4.50713 | 29298 ft | 430 kts | 70° |
| 2026-05-01 08:38 | 49.18997 | 4.54946 | 29625 ft | 432 kts | 70° |
| 2026-05-01 08:38 | 49.20145 | 4.59194 | 29947 ft | 433 kts | 70° |
| 2026-05-01 08:39 | 49.21296 | 4.63463 | 30238 ft | 435 kts | 70° |
| 2026-05-01 08:39 | 49.22449 | 4.67755 | 30470 ft | 438 kts | 70° |
| 2026-05-01 08:39 | 49.23608 | 4.72077 | 30708 ft | 440 kts | 70° |
| 2026-05-01 08:39 | 49.24772 | 4.76414 | 30942 ft | 442 kts | 70° |
| 2026-05-01 08:40 | 49.27109 | 4.85147 | 31454 ft | 444 kts | 70° |
| 2026-05-01 08:40 | 49.28277 | 4.89518 | 31786 ft | 443 kts | 70° |
| 2026-05-01 08:40 | 49.29439 | 4.93876 | 32123 ft | 442 kts | 69° |
| 2026-05-01 08:41 | 49.30597 | 4.98232 | 32464 ft | 441 kts | 70° |
| 2026-05-01 08:41 | 49.31751 | 5.02581 | 32795 ft | 440 kts | 70° |
| 2026-05-01 08:41 | 49.32904 | 5.06927 | 33114 ft | 440 kts | 70° |
| 2026-05-01 08:41 | 49.34055 | 5.11265 | 33438 ft | 439 kts | 69° |
| 2026-05-01 08:42 | 49.35203 | 5.15600 | 33760 ft | 439 kts | 70° |
| 2026-05-01 08:42 | 49.36346 | 5.19934 | 34094 ft | 438 kts | 70° |
| 2026-05-01 08:42 | 49.37483 | 5.24263 | 34389 ft | 437 kts | 70° |
| 2026-05-01 08:42 | 49.38618 | 5.28590 | 34672 ft | 437 kts | 70° |
| 2026-05-01 08:43 | 49.39748 | 5.32918 | 34910 ft | 437 kts | 70° |
| 2026-05-01 08:43 | 49.40874 | 5.37244 | 35145 ft | 436 kts | 70° |
| 2026-05-01 08:43 | 49.42000 | 5.41567 | 35273 ft | 435 kts | 69° |
| 2026-05-01 08:43 | 49.43106 | 5.45798 | 35289 ft | 431 kts | 70° |
| 2026-05-01 08:44 | 49.45325 | 5.54326 | 35291 ft | 429 kts | 69° |
| 2026-05-01 08:44 | 49.47528 | 5.62851 | 35291 ft | 428 kts | 69° |
| 2026-05-01 08:45 | 49.49725 | 5.71374 | 35296 ft | 428 kts | 70° |
| 2026-05-01 08:45 | 49.51909 | 5.79912 | 35302 ft | 429 kts | 70° |
| 2026-05-01 08:46 | 49.53999 | 5.88496 | 35310 ft | 428 kts | 70° |
| 2026-05-01 08:46 | 49.56088 | 5.97083 | 35319 ft | 428 kts | 70° |
| 2026-05-01 08:47 | 49.58205 | 6.05653 | 35324 ft | 428 kts | 70° |
| 2026-05-01 08:47 | 49.60317 | 6.14232 | 35324 ft | 428 kts | 69° |
| 2026-05-01 08:48 | 49.62635 | 6.22673 | 35318 ft | 428 kts | 59° |
| 2026-05-01 08:48 | 49.66455 | 6.29687 | 35315 ft | 429 kts | 40° |
| 2026-05-01 08:49 | 49.68901 | 6.32323 | 35324 ft | 430 kts | 29° |
| 2026-05-01 08:49 | 49.71547 | 6.34472 | 35314 ft | 430 kts | 28° |
| 2026-05-01 08:49 | 49.76850 | 6.38732 | 35310 ft | 429 kts | 28° |
| 2026-05-01 08:50 | 49.82140 | 6.43008 | 35296 ft | 429 kts | 28° |
| 2026-05-01 08:50 | 49.87420 | 6.47301 | 35292 ft | 428 kts | 28° |
| 2026-05-01 08:51 | 49.91249 | 6.50426 | 35288 ft | 429 kts | 28° |
| 2026-05-01 08:51 | 49.96488 | 6.54850 | 35556 ft | 432 kts | 34° |
| 2026-05-01 08:52 | 49.98923 | 6.57692 | 35810 ft | 433 kts | 41° |
| 2026-05-01 08:52 | 50.01019 | 6.60948 | 36017 ft | 433 kts | 49° |
| 2026-05-01 08:52 | 50.02999 | 6.64475 | 36211 ft | 433 kts | 49° |
| 2026-05-01 08:52 | 50.04977 | 6.68003 | 36430 ft | 433 kts | 50° |
| 2026-05-01 08:53 | 50.06734 | 6.71801 | 36637 ft | 433 kts | 59° |
| 2026-05-01 08:53 | 50.08097 | 6.75977 | 36827 ft | 433 kts | 68° |
| 2026-05-01 08:53 | 50.09042 | 6.80425 | 37009 ft | 433 kts | 76° |
| 2026-05-01 08:53 | 50.09524 | 6.85049 | 37200 ft | 434 kts | 83° |
| 2026-05-01 08:54 | 50.10020 | 6.89673 | 37335 ft | 433 kts | 73° |
| 2026-05-01 08:54 | 50.11007 | 6.94095 | 37359 ft | 432 kts | 68° |
| 2026-05-01 08:54 | 50.13217 | 7.02810 | 37358 ft | 433 kts | 68° |
| 2026-05-01 08:55 | 50.15377 | 7.11561 | 37358 ft | 433 kts | 68° |
| 2026-05-01 08:55 | 50.17515 | 7.20327 | 37355 ft | 433 kts | 68° |
| 2026-05-01 08:56 | 50.19651 | 7.29100 | 37356 ft | 432 kts | 69° |
| 2026-05-01 08:56 | 50.21785 | 7.37868 | 37368 ft | 432 kts | 68° |
| 2026-05-01 08:57 | 50.23909 | 7.46652 | 37371 ft | 432 kts | 68° |
| 2026-05-01 08:57 | 50.26027 | 7.55442 | 37371 ft | 432 kts | 68° |
| 2026-05-01 08:58 | 50.28138 | 7.64240 | 37384 ft | 432 kts | 68° |
| 2026-05-01 08:58 | 50.30244 | 7.73040 | 37380 ft | 432 kts | 69° |
| 2026-05-01 08:59 | 50.32339 | 7.81852 | 37392 ft | 432 kts | 68° |
| 2026-05-01 08:59 | 50.34427 | 7.90667 | 37404 ft | 432 kts | 67° |
| 2026-05-01 09:00 | 50.36500 | 7.99427 | 37405 ft | 432 kts | 67° |
| 2026-05-01 09:00 | 50.38578 | 8.08244 | 37413 ft | 432 kts | 68° |
| 2026-05-01 09:01 | 50.40647 | 8.17079 | 37407 ft | 432 kts | 68° |
| 2026-05-01 09:01 | 50.42708 | 8.25929 | 37412 ft | 432 kts | 68° |
| 2026-05-01 09:02 | 50.44764 | 8.34782 | 37409 ft | 432 kts | 69° |
| 2026-05-01 09:02 | 50.46814 | 8.43642 | 37421 ft | 432 kts | 68° |
| 2026-05-01 09:03 | 50.48870 | 8.52511 | 37415 ft | 432 kts | 68° |
| 2026-05-01 09:03 | 50.50914 | 8.61388 | 37419 ft | 432 kts | 69° |
| 2026-05-01 09:04 | 50.52940 | 8.70279 | 37417 ft | 432 kts | 69° |
| 2026-05-01 09:04 | 50.54959 | 8.79181 | 37420 ft | 432 kts | 69° |
| 2026-05-01 09:05 | 50.56980 | 8.88087 | 37412 ft | 432 kts | 69° |
| 2026-05-01 09:05 | 50.58990 | 8.97007 | 37412 ft | 433 kts | 69° |
| 2026-05-01 09:06 | 50.60988 | 9.05938 | 37410 ft | 433 kts | 69° |
| 2026-05-01 09:06 | 50.62988 | 9.14879 | 37414 ft | 433 kts | 69° |
| 2026-05-01 09:07 | 50.64987 | 9.23825 | 37417 ft | 433 kts | 69° |
| 2026-05-01 09:07 | 50.66642 | 9.31263 | 37416 ft | 433 kts | 69° |
| 2026-05-01 09:08 | 50.68622 | 9.40224 | 37426 ft | 433 kts | 69° |
| 2026-05-01 09:08 | 50.70604 | 9.49251 | 37422 ft | 432 kts | 69° |
| 2026-05-01 09:09 | 50.72567 | 9.58221 | 37430 ft | 432 kts | 69° |
| 2026-05-01 09:09 | 50.74520 | 9.67124 | 37431 ft | 432 kts | 69° |
| 2026-05-01 09:10 | 50.76492 | 9.76093 | 37429 ft | 432 kts | 69° |
| 2026-05-01 09:10 | 50.78454 | 9.85056 | 37433 ft | 432 kts | 69° |
| 2026-05-01 09:11 | 50.80403 | 9.94037 | 37440 ft | 432 kts | 69° |
| 2026-05-01 09:11 | 50.82344 | 10.03021 | 37439 ft | 432 kts | 69° |
| 2026-05-01 09:12 | 50.84280 | 10.12011 | 37437 ft | 431 kts | 69° |
| 2026-05-01 09:12 | 50.86210 | 10.20991 | 37435 ft | 431 kts | 69° |
| 2026-05-01 09:13 | 50.88131 | 10.29987 | 37437 ft | 431 kts | 70° |
| 2026-05-01 09:13 | 50.90044 | 10.38995 | 37435 ft | 432 kts | 70° |
| 2026-05-01 09:14 | 50.91951 | 10.48010 | 37443 ft | 431 kts | 70° |
| 2026-05-01 09:14 | 50.93848 | 10.57026 | 37443 ft | 431 kts | 70° |
| 2026-05-01 09:15 | 50.95742 | 10.66047 | 37446 ft | 431 kts | 70° |
| 2026-05-01 09:15 | 50.97623 | 10.75007 | 37444 ft | 431 kts | 70° |
| 2026-05-01 09:16 | 50.99498 | 10.84037 | 37444 ft | 431 kts | 70° |
| 2026-05-01 09:17 | 51.02293 | 10.97599 | 37460 ft | 430 kts | 70° |
| 2026-05-01 09:17 | 51.05071 | 11.11125 | 37461 ft | 429 kts | 70° |
| 2026-05-01 09:18 | 51.07827 | 11.24630 | 37458 ft | 428 kts | 70° |
| 2026-05-01 09:19 | 51.10559 | 11.38132 | 37460 ft | 427 kts | 70° |
| 2026-05-01 09:20 | 51.13270 | 11.51640 | 37469 ft | 427 kts | 70° |
| 2026-05-01 09:21 | 51.16854 | 11.69616 | 37465 ft | 425 kts | 70° |
| 2026-05-01 09:21 | 51.19524 | 11.83097 | 37465 ft | 425 kts | 70° |
| 2026-05-01 09:22 | 51.23048 | 12.01085 | 37460 ft | 425 kts | 70° |
| 2026-05-01 09:23 | 51.25677 | 12.14592 | 37464 ft | 424 kts | 70° |
| 2026-05-01 09:24 | 51.28296 | 12.28084 | 37460 ft | 424 kts | 70° |
| 2026-05-01 09:25 | 51.31754 | 12.46098 | 37459 ft | 424 kts | 71° |
| 2026-05-01 09:26 | 51.34318 | 12.59624 | 37479 ft | 423 kts | 71° |
| 2026-05-01 09:26 | 51.36860 | 12.73125 | 37470 ft | 422 kts | 71° |
| 2026-05-01 09:27 | 51.39384 | 12.86619 | 37457 ft | 422 kts | 71° |
| 2026-05-01 09:28 | 51.41050 | 12.95551 | 37452 ft | 421 kts | 71° |
| 2026-05-01 09:28 | 51.42720 | 13.04548 | 37467 ft | 421 kts | 71° |
| 2026-05-01 09:29 | 51.45205 | 13.18039 | 37462 ft | 420 kts | 71° |
| 2026-05-01 09:30 | 51.47669 | 13.31516 | 37448 ft | 420 kts | 71° |
| 2026-05-01 09:30 | 51.50115 | 13.44995 | 37448 ft | 419 kts | 71° |
| 2026-05-01 09:31 | 51.51746 | 13.53979 | 37441 ft | 419 kts | 71° |
| 2026-05-01 09:32 | 51.54164 | 13.67482 | 37457 ft | 419 kts | 71° |
| 2026-05-01 09:32 | 51.56561 | 13.80992 | 37453 ft | 419 kts | 71° |
| 2026-05-01 09:33 | 51.58159 | 13.89995 | 37448 ft | 419 kts | 71° |
| 2026-05-01 09:34 | 51.60533 | 14.03508 | 37440 ft | 419 kts | 72° |
| 2026-05-01 09:34 | 51.62881 | 14.16975 | 37441 ft | 419 kts | 72° |
| 2026-05-01 09:35 | 51.65223 | 14.30517 | 37440 ft | 419 kts | 72° |
| 2026-05-01 09:36 | 51.66775 | 14.39559 | 37432 ft | 419 kts | 72° |
| 2026-05-01 09:36 | 51.68328 | 14.48612 | 37429 ft | 419 kts | 72° |
| 2026-05-01 09:37 | 51.69876 | 14.57680 | 37434 ft | 420 kts | 72° |
| 2026-05-01 09:37 | 51.72176 | 14.71305 | 37447 ft | 420 kts | 72° |
| 2026-05-01 09:38 | 51.74579 | 14.84858 | 37449 ft | 418 kts | 71° |
| 2026-05-01 09:39 | 51.76974 | 14.98393 | 37436 ft | 418 kts | 72° |
| 2026-05-01 09:39 | 51.78548 | 15.07433 | 37434 ft | 418 kts | 72° |
| 2026-05-01 09:40 | 51.80879 | 15.20946 | 37419 ft | 418 kts | 72° |
| 2026-05-01 09:41 | 51.82441 | 15.30002 | 37446 ft | 418 kts | 72° |
| 2026-05-01 09:41 | 51.84748 | 15.43562 | 37434 ft | 416 kts | 72° |
| 2026-05-01 09:42 | 51.86281 | 15.52586 | 37433 ft | 416 kts | 72° |
| 2026-05-01 09:43 | 51.89326 | 15.70636 | 37421 ft | 415 kts | 72° |
| 2026-05-01 09:43 | 51.90838 | 15.79668 | 37436 ft | 415 kts | 72° |
| 2026-05-01 09:44 | 51.93089 | 15.93194 | 37424 ft | 414 kts | 72° |
| 2026-05-01 09:45 | 51.94575 | 16.02212 | 37418 ft | 414 kts | 72° |
| 2026-05-01 09:45 | 51.96785 | 16.15747 | 37412 ft | 414 kts | 72° |
| 2026-05-01 09:46 | 51.98250 | 16.24770 | 37405 ft | 414 kts | 72° |
| 2026-05-01 09:46 | 51.99708 | 16.33740 | 37405 ft | 414 kts | 72° |
| 2026-05-01 09:47 | 52.01167 | 16.42767 | 37427 ft | 413 kts | 72° |
| 2026-05-01 09:47 | 52.02612 | 16.51802 | 37421 ft | 413 kts | 72° |
| 2026-05-01 09:48 | 52.04050 | 16.60823 | 37413 ft | 413 kts | 72° |
| 2026-05-01 09:48 | 52.05477 | 16.69848 | 37406 ft | 412 kts | 72° |
| 2026-05-01 09:49 | 52.06895 | 16.78876 | 37403 ft | 412 kts | 72° |
| 2026-05-01 09:49 | 52.08312 | 16.87916 | 37401 ft | 413 kts | 72° |
| 2026-05-01 09:50 | 52.09725 | 16.96958 | 37419 ft | 412 kts | 72° |
| 2026-05-01 09:50 | 52.11126 | 17.05994 | 37418 ft | 412 kts | 72° |
| 2026-05-01 09:51 | 52.12512 | 17.15021 | 37412 ft | 411 kts | 73° |
| 2026-05-01 09:51 | 52.13884 | 17.23982 | 37411 ft | 411 kts | 73° |
| 2026-05-01 09:52 | 52.15263 | 17.32999 | 37403 ft | 410 kts | 73° |
| 2026-05-01 09:52 | 52.16625 | 17.42018 | 37395 ft | 410 kts | 73° |
| 2026-05-01 09:53 | 52.17981 | 17.51046 | 37424 ft | 410 kts | 72° |
| 2026-05-01 09:53 | 52.19335 | 17.60061 | 37410 ft | 409 kts | 72° |
| 2026-05-01 09:54 | 52.20675 | 17.69060 | 37404 ft | 408 kts | 73° |
| 2026-05-01 09:54 | 52.22008 | 17.78048 | 37397 ft | 408 kts | 73° |
| 2026-05-01 09:55 | 52.23330 | 17.87033 | 37393 ft | 407 kts | 73° |
| 2026-05-01 09:55 | 52.24645 | 17.96019 | 37389 ft | 407 kts | 73° |
| 2026-05-01 09:56 | 52.25660 | 18.05132 | 37383 ft | 410 kts | 78° |
| 2026-05-01 09:56 | 52.26431 | 18.14422 | 37098 ft | 418 kts | 78° |
| 2026-05-01 09:57 | 52.26817 | 18.19122 | 36829 ft | 418 kts | 78° |
| 2026-05-01 09:57 | 52.27198 | 18.23814 | 36561 ft | 416 kts | 78° |
| 2026-05-01 09:57 | 52.27447 | 18.26910 | 36398 ft | 415 kts | 78° |
| 2026-05-01 09:57 | 52.27948 | 18.33152 | 35586 ft | 415 kts | 78° |
| 2026-05-01 09:58 | 52.28196 | 18.36225 | 35302 ft | 411 kts | 78° |
| 2026-05-01 09:58 | 52.28564 | 18.40832 | 34798 ft | 407 kts | 78° |
| 2026-05-01 09:58 | 52.28925 | 18.45388 | 34287 ft | 403 kts | 78° |
| 2026-05-01 09:58 | 52.29398 | 18.51363 | 33597 ft | 397 kts | 78° |
| 2026-05-01 09:59 | 52.29633 | 18.54372 | 33278 ft | 394 kts | 78° |
| 2026-05-01 09:59 | 52.29977 | 18.58783 | 32789 ft | 389 kts | 78° |
| 2026-05-01 09:59 | 52.30315 | 18.63133 | 32335 ft | 384 kts | 77° |
| 2026-05-01 09:59 | 52.30650 | 18.67450 | 31846 ft | 381 kts | 77° |
| 2026-05-01 10:00 | 52.30980 | 18.71715 | 31386 ft | 376 kts | 77° |
| 2026-05-01 10:00 | 52.31301 | 18.75873 | 30941 ft | 372 kts | 77° |
| 2026-05-01 10:00 | 52.31626 | 18.80097 | 30486 ft | 368 kts | 77° |
| 2026-05-01 10:00 | 52.31942 | 18.84217 | 30004 ft | 363 kts | 77° |
| 2026-05-01 10:01 | 52.32251 | 18.88274 | 29579 ft | 357 kts | 77° |
| 2026-05-01 10:01 | 52.32547 | 18.92214 | 29165 ft | 351 kts | 77° |
| 2026-05-01 10:01 | 52.32841 | 18.96146 | 28768 ft | 345 kts | 77° |
| 2026-05-01 10:01 | 52.33130 | 19.00009 | 28374 ft | 340 kts | 77° |
| 2026-05-01 10:02 | 52.33414 | 19.03817 | 27991 ft | 334 kts | 77° |
| 2026-05-01 10:02 | 52.33689 | 19.07559 | 27623 ft | 329 kts | 77° |
| 2026-05-01 10:02 | 52.33960 | 19.11248 | 27255 ft | 324 kts | 77° |
| 2026-05-01 10:02 | 52.34225 | 19.14880 | 26899 ft | 320 kts | 77° |
| 2026-05-01 10:03 | 52.34487 | 19.18460 | 26557 ft | 315 kts | 77° |
| 2026-05-01 10:03 | 52.34746 | 19.22001 | 26177 ft | 312 kts | 77° |
| 2026-05-01 10:03 | 52.34980 | 19.25519 | 25759 ft | 311 kts | 78° |
| 2026-05-01 10:03 | 52.35168 | 19.29026 | 25352 ft | 309 kts | 78° |
| 2026-05-01 10:04 | 52.35334 | 19.32521 | 24930 ft | 308 kts | 79° |
| 2026-05-01 10:04 | 52.35492 | 19.36010 | 24518 ft | 307 kts | 79° |
| 2026-05-01 10:04 | 52.35648 | 19.39484 | 24089 ft | 306 kts | 79° |
| 2026-05-01 10:04 | 52.35810 | 19.42949 | 23609 ft | 305 kts | 79° |
| 2026-05-01 10:05 | 52.35974 | 19.46400 | 23169 ft | 303 kts | 79° |
| 2026-05-01 10:05 | 52.36138 | 19.49819 | 22749 ft | 301 kts | 79° |
| 2026-05-01 10:05 | 52.36301 | 19.53213 | 22324 ft | 299 kts | 79° |
| 2026-05-01 10:05 | 52.36461 | 19.56591 | 21905 ft | 297 kts | 78° |
| 2026-05-01 10:06 | 52.36621 | 19.59954 | 21500 ft | 296 kts | 78° |
| 2026-05-01 10:06 | 52.36779 | 19.63254 | 21090 ft | 294 kts | 78° |
| 2026-05-01 10:06 | 52.36935 | 19.66589 | 20683 ft | 293 kts | 79° |
| 2026-05-01 10:06 | 52.37089 | 19.69913 | 20277 ft | 293 kts | 79° |
| 2026-05-01 10:07 | 52.37241 | 19.73233 | 19873 ft | 292 kts | 79° |
| 2026-05-01 10:07 | 52.37437 | 19.76534 | 19472 ft | 289 kts | 73° |
| 2026-05-01 10:07 | 52.37987 | 19.79664 | 19178 ft | 288 kts | 63° |
| 2026-05-01 10:07 | 52.38761 | 19.82731 | 18965 ft | 294 kts | 63° |
| 2026-05-01 10:08 | 52.40284 | 19.88947 | 18488 ft | 294 kts | 64° |
| 2026-05-01 10:08 | 52.41037 | 19.92053 | 18246 ft | 293 kts | 64° |
| 2026-05-01 10:08 | 52.41788 | 19.95150 | 18017 ft | 292 kts | 64° |
| 2026-05-01 10:09 | 52.42540 | 19.98243 | 17788 ft | 292 kts | 64° |
| 2026-05-01 10:09 | 52.43290 | 20.01324 | 17561 ft | 291 kts | 63° |
| 2026-05-01 10:09 | 52.44041 | 20.04397 | 17335 ft | 290 kts | 63° |
| 2026-05-01 10:09 | 52.44790 | 20.07466 | 17107 ft | 289 kts | 64° |
| 2026-05-01 10:10 | 52.45531 | 20.10527 | 16883 ft | 289 kts | 64° |
| 2026-05-01 10:10 | 52.46268 | 20.13582 | 16656 ft | 288 kts | 64° |
| 2026-05-01 10:10 | 52.47740 | 20.19668 | 16206 ft | 286 kts | 64° |
| 2026-05-01 10:11 | 52.48474 | 20.22704 | 15982 ft | 286 kts | 64° |
| 2026-05-01 10:11 | 52.49203 | 20.25726 | 15758 ft | 285 kts | 64° |
| 2026-05-01 10:11 | 52.49932 | 20.28750 | 15537 ft | 284 kts | 64° |
| 2026-05-01 10:11 | 52.50497 | 20.31807 | 15316 ft | 285 kts | 76° |
| 2026-05-01 10:12 | 52.50499 | 20.35082 | 15086 ft | 292 kts | 92° |
| 2026-05-01 10:12 | 52.49860 | 20.38294 | 14865 ft | 303 kts | 109° |
| 2026-05-01 10:12 | 52.47755 | 20.44327 | 14370 ft | 304 kts | 112° |
| 2026-05-01 10:13 | 52.46698 | 20.47331 | 14136 ft | 303 kts | 112° |
| 2026-05-01 10:13 | 52.45648 | 20.50326 | 13882 ft | 303 kts | 111° |
| 2026-05-01 10:13 | 52.44604 | 20.53315 | 13636 ft | 302 kts | 112° |
| 2026-05-01 10:14 | 52.42525 | 20.59264 | 13168 ft | 300 kts | 112° |
| 2026-05-01 10:14 | 52.41486 | 20.62223 | 12923 ft | 299 kts | 112° |
| 2026-05-01 10:14 | 52.40449 | 20.65171 | 12704 ft | 298 kts | 112° |
| 2026-05-01 10:14 | 52.39416 | 20.68107 | 12472 ft | 297 kts | 112° |
| 2026-05-01 10:15 | 52.38383 | 20.71038 | 12216 ft | 297 kts | 112° |
| 2026-05-01 10:15 | 52.37357 | 20.73955 | 11914 ft | 295 kts | 113° |
| 2026-05-01 10:15 | 52.36333 | 20.76863 | 11639 ft | 294 kts | 113° |
| 2026-05-01 10:15 | 52.35313 | 20.79761 | 11327 ft | 294 kts | 113° |
| 2026-05-01 10:16 | 52.34292 | 20.82655 | 11022 ft | 293 kts | 114° |
| 2026-05-01 10:16 | 52.33274 | 20.85533 | 10734 ft | 292 kts | 114° |
| 2026-05-01 10:16 | 52.31241 | 20.91260 | 10115 ft | 290 kts | 114° |
| 2026-05-01 10:17 | 52.30229 | 20.94109 | 9787 ft | 289 kts | 114° |
| 2026-05-01 10:17 | 52.28211 | 20.99787 | 9000 ft | 293 kts | 116° |
| 2026-05-01 10:17 | 52.26957 | 21.02416 | 8665 ft | 295 kts | 131° |
| 2026-05-01 10:18 | 52.23487 | 21.06016 | 8026 ft | 296 kts | 149° |
| 2026-05-01 10:18 | 52.21665 | 21.07571 | 7723 ft | 295 kts | 149° |
| 2026-05-01 10:18 | 52.19854 | 21.09127 | 7447 ft | 293 kts | 149° |
| 2026-05-01 10:19 | 52.18056 | 21.10673 | 7352 ft | 291 kts | 149° |
| 2026-05-01 10:19 | 52.16301 | 21.12182 | 7229 ft | 280 kts | 149° |
| 2026-05-01 10:19 | 52.14610 | 21.13638 | 7087 ft | 271 kts | 149° |
| 2026-05-01 10:20 | 52.11349 | 21.16496 | 6563 ft | 262 kts | 148° |
| 2026-05-01 10:20 | 52.09761 | 21.17891 | 6321 ft | 256 kts | 148° |
| 2026-05-01 10:20 | 52.08202 | 21.19258 | 6091 ft | 253 kts | 149° |
| 2026-05-01 10:20 | 52.06660 | 21.20608 | 5857 ft | 251 kts | 149° |
| 2026-05-01 10:21 | 52.05129 | 21.21947 | 5631 ft | 249 kts | 149° |
| 2026-05-01 10:21 | 52.02102 | 21.24587 | 5181 ft | 245 kts | 150° |
| 2026-05-01 10:21 | 52.00604 | 21.25889 | 4957 ft | 243 kts | 150° |
| 2026-05-01 10:22 | 51.97615 | 21.28465 | 4844 ft | 244 kts | 150° |
| 2026-05-01 10:22 | 51.94618 | 21.31039 | 4727 ft | 243 kts | 150° |
| 2026-05-01 10:23 | 51.93126 | 21.32325 | 4675 ft | 243 kts | 150° |
| 2026-05-01 10:23 | 51.89969 | 21.33933 | 4558 ft | 243 kts | 190° |
| 2026-05-01 10:23 | 51.88452 | 21.32852 | 4499 ft | 240 kts | 223° |
| 2026-05-01 10:24 | 51.86704 | 21.28363 | 4371 ft | 237 kts | 246° |
| 2026-05-01 10:24 | 51.86685 | 21.23399 | 4238 ft | 225 kts | 305° |
| 2026-05-01 10:25 | 51.89155 | 21.20517 | 4119 ft | 222 kts | 333° |
| 2026-05-01 10:25 | 51.91815 | 21.18233 | 4013 ft | 213 kts | 333° |
| 2026-05-01 10:26 | 51.93120 | 21.17109 | 3948 ft | 213 kts | 333° |
| 2026-05-01 10:26 | 51.94426 | 21.15976 | 3898 ft | 213 kts | 333° |
| 2026-05-01 10:26 | 51.96973 | 21.13767 | 3750 ft | 199 kts | 333° |
| 2026-05-01 10:27 | 51.99337 | 21.11695 | 3575 ft | 190 kts | 333° |
| 2026-05-01 10:27 | 52.01653 | 21.09680 | 3168 ft | 189 kts | 332° |
| 2026-05-01 10:28 | 52.02805 | 21.08683 | 3101 ft | 187 kts | 334° |
| 2026-05-01 10:28 | 52.05079 | 21.06724 | 2624 ft | 185 kts | 332° |
| 2026-05-01 10:28 | 52.06205 | 21.05742 | 2440 ft | 180 kts | 332° |
| 2026-05-01 10:29 | 52.08269 | 21.03928 | 1957 ft | 155 kts | 332° |
| 2026-05-01 10:29 | 52.09192 | 21.03107 | 1777 ft | 146 kts | 333° |
| 2026-05-01 10:30 | 52.10939 | 21.01556 | 1389 ft | 141 kts | 333° |
| 2026-05-01 10:30 | 52.12687 | 21.00037 | 1050 ft | 142 kts | 334° |
| 2026-05-01 10:31 | 52.14436 | 20.98557 | 645 ft | 142 kts | 336° |
| 2026-05-01 10:31 | 52.16160 | 20.97075 | 357 ft | 124 kts | 331° |
| 2026-05-01 10:32 | 52.16938 | 20.96513 | 353 ft | 22 kts | 1° |
| 2026-05-01 10:32 | 52.17065 | 20.96537 | 351 ft | 14 kts | 40° |
| 2026-05-01 10:32 | 52.17162 | 20.96807 | 356 ft | 8 kts | 81° |
| 2026-05-01 10:33 | 52.17058 | 20.96929 | 361 ft | 10 kts | 152° |
| 2026-05-01 10:33 | 52.16980 | 20.97050 | 357 ft | 7 kts | 72° |
| 2026-05-01 10:34 | 52.16993 | 20.97117 | 359 ft | 5 kts | 72° |
| 2026-05-01 10:34 | 52.16999 | 20.97147 | 355 ft | 0 kts | 72° |